Time;durP1;ratioP1;P1;durP2;ratioP2;P2;SDS_P1;SDS_P2;PMS_P1;PMS_P2;Temp;Humidity;BMP_temperature;BMP_pressure;BME280_temperature;BME280_humidity;BME280_pressure;Samples;Min_cycle;Max_cycle;Signal;HPM_P1;HPM_P2
2023/12/16 00:01:22;;;;;;;0.10;0.10;;;9.60;99.90;;;;;;5075084;28;20040;-73
2023/12/16 00:03:48;;;;;;;2.05;0.68;;;9.50;99.90;;;;;;5074912;28;20032;-73
2023/12/16 00:06:14;;;;;;;2.08;1.15;;;9.40;99.90;;;;;;5074820;28;20374;-73
2023/12/16 00:08:40;;;;;;;2.03;1.23;;;9.30;99.90;;;;;;5074934;28;20380;-73
2023/12/16 00:11:05;;;;;;;2.83;1.17;;;9.20;99.90;;;;;;5074235;28;20033;-73
2023/12/16 00:13:31;;;;;;;3.10;2.15;;;9.30;99.90;;;;;;5074050;28;20037;-73
2023/12/16 00:15:57;;;;;;;3.60;1.17;;;9.40;99.90;;;;;;5074639;28;20032;-73
2023/12/16 00:18:24;;;;;;;5.25;1.15;;;9.40;99.90;;;;;;5074937;28;20031;-73
2023/12/16 00:20:52;;;;;;;5.00;1.50;;;9.30;99.90;;;;;;5074485;28;20537;-72
2023/12/16 00:23:17;;;;;;;0.10;0.10;;;9.30;99.90;;;;;;5074859;28;20085;-72
2023/12/16 00:25:43;;;;;;;7.22;1.48;;;9.30;99.90;;;;;;5074480;28;20548;-73
2023/12/16 00:28:09;;;;;;;6.07;0.60;;;9.40;99.90;;;;;;5074122;28;20064;-73
2023/12/16 00:30:35;;;;;;;0.75;0.40;;;9.50;99.90;;;;;;5073604;28;20035;-73
2023/12/16 00:33:01;;;;;;;1.02;0.95;;;9.40;99.90;;;;;;5056592;28;20554;-72
2023/12/16 00:35:27;;;;;;;0.82;0.82;;;9.40;99.90;;;;;;5074473;28;20052;-73
2023/12/16 00:37:53;;;;;;;0.10;0.10;;;9.50;99.90;;;;;;5074209;28;20017;-73
2023/12/16 00:40:19;;;;;;;8.32;1.75;;;9.50;99.90;;;;;;5072912;28;20032;-73
2023/12/16 00:42:45;;;;;;;8.63;3.22;;;9.40;99.90;;;;;;5062639;28;20534;-73
2023/12/16 00:45:11;;;;;;;0.10;0.10;;;9.40;99.90;;;;;;5071844;28;20468;-72
2023/12/16 00:47:38;;;;;;;0.20;0.20;;;9.30;99.90;;;;;;5073892;28;20504;-73
2023/12/16 00:50:05;;;;;;;0.82;0.80;;;9.20;99.90;;;;;;5074001;28;20017;-73
2023/12/16 00:52:31;;;;;;;11.88;1.10;;;9.30;99.90;;;;;;5074041;28;20051;-73
2023/12/16 00:54:56;;;;;;;0.10;0.10;;;9.40;99.90;;;;;;5074015;28;20465;-73
2023/12/16 00:57:22;;;;;;;1.02;0.68;;;9.50;99.90;;;;;;5074054;28;20528;-73
2023/12/16 00:59:48;;;;;;;0.00;0.00;;;9.50;99.90;;;;;;5073977;28;20472;-73
2023/12/16 01:02:14;;;;;;;0.10;0.10;;;9.30;99.90;;;;;;5073632;28;20033;-73
2023/12/16 01:04:40;;;;;;;0.98;0.60;;;9.40;99.90;;;;;;5072304;28;20024;-73
2023/12/16 01:07:09;;;;;;;0.17;0.17;;;9.40;99.90;;;;;;5072069;28;20040;-72
2023/12/16 01:09:34;;;;;;;0.57;0.43;;;9.40;99.90;;;;;;5073490;28;20596;-73
2023/12/16 01:12:00;;;;;;;1.77;1.02;;;9.40;99.90;;;;;;5073577;28;20116;-73
2023/12/16 01:14:26;;;;;;;5.90;1.35;;;9.40;99.90;;;;;;5072508;28;20461;-73
2023/12/16 01:16:52;;;;;;;5.70;1.52;;;9.40;99.90;;;;;;5073709;28;20484;-73
2023/12/16 01:19:18;;;;;;;6.88;2.25;;;9.20;99.90;;;;;;5073078;28;20534;-73
2023/12/16 01:21:44;;;;;;;4.03;1.70;;;9.30;99.90;;;;;;5073697;28;20484;-73
2023/12/16 01:24:10;;;;;;;0.30;0.30;;;9.30;99.90;;;;;;5072661;28;20060;-72
2023/12/16 01:26:36;;;;;;;3.15;0.95;;;9.20;99.90;;;;;;5072183;28;20119;-73
2023/12/16 01:29:02;;;;;;;0.68;0.60;;;9.40;99.90;;;;;;5073311;28;20079;-72
2023/12/16 01:31:28;;;;;;;0.10;0.10;;;9.20;99.90;;;;;;5073452;28;20032;-72
2023/12/16 01:33:54;;;;;;;1.85;1.45;;;9.30;99.90;;;;;;5073021;28;20020;-73
2023/12/16 01:36:19;;;;;;;1.92;1.00;;;9.20;99.90;;;;;;5071970;28;20453;-73
2023/12/16 01:38:46;;;;;;;0.10;0.10;;;9.20;99.90;;;;;;5071679;28;20474;-72
2023/12/16 01:41:11;;;;;;;0.40;0.40;;;9.30;99.90;;;;;;5073109;28;20037;-72
2023/12/16 01:43:37;;;;;;;2.17;1.58;;;9.20;99.90;;;;;;5058833;28;20484;-73
2023/12/16 01:46:04;;;;;;;0.20;0.20;;;9.10;99.90;;;;;;5071913;28;20039;-72
2023/12/16 01:48:32;;;;;;;0.03;0.03;;;9.10;99.90;;;;;;5072938;28;20074;-72
2023/12/16 01:50:59;;;;;;;1.55;0.80;;;9.20;99.90;;;;;;5073193;28;20087;-73
2023/12/16 01:53:26;;;;;;;0.52;0.35;;;9.20;99.90;;;;;;5072383;28;20025;-72
2023/12/16 01:55:53;;;;;;;0.45;0.45;;;9.20;99.90;;;;;;5071871;28;20028;-73
2023/12/16 01:58:20;;;;;;;0.40;0.40;;;9.00;99.90;;;;;;5072848;28;20036;-73
2023/12/16 02:00:50;;;;;;;5.80;2.33;;;9.10;99.90;;;;;;5072956;28;20481;-72
2023/12/16 02:03:18;;;;;;;2.53;0.63;;;9.00;99.90;;;;;;5072465;28;20033;-72
2023/12/16 02:05:44;;;;;;;0.25;0.25;;;9.10;99.90;;;;;;5072900;28;20085;-72
2023/12/16 02:08:10;;;;;;;0.70;0.70;;;9.00;99.90;;;;;;5072240;28;20032;-72
2023/12/16 02:10:35;;;;;;;1.65;0.98;;;8.90;99.90;;;;;;5072847;28;20024;-72
2023/12/16 02:13:02;;;;;;;0.30;0.20;;;9.00;99.90;;;;;;5072932;28;20434;-72
2023/12/16 02:15:28;;;;;;;0.00;0.00;;;8.90;99.90;;;;;;5072729;28;20114;-72
2023/12/16 02:17:54;;;;;;;0.95;0.88;;;9.00;99.90;;;;;;5067672;28;20060;-72
2023/12/16 02:20:20;;;;;;;3.30;1.15;;;9.00;99.90;;;;;;5055218;28;20112;-72
2023/12/16 02:22:47;;;;;;;1.90;1.25;;;9.10;99.90;;;;;;5070058;28;20017;-72
2023/12/16 02:25:14;;;;;;;3.47;2.13;;;9.00;99.90;;;;;;5071283;28;20067;-72
2023/12/16 02:27:43;;;;;;;0.32;0.30;;;9.00;99.90;;;;;;5072387;28;20032;-72
2023/12/16 02:30:09;;;;;;;6.20;1.27;;;9.10;99.90;;;;;;5071385;28;20025;-72
2023/12/16 02:32:35;;;;;;;2.33;1.13;;;9.10;99.90;;;;;;5072260;28;20544;-72
2023/12/16 02:35:01;;;;;;;6.90;1.98;;;9.00;99.90;;;;;;5075359;28;20074;-72
2023/12/16 02:37:27;;;;;;;0.93;0.90;;;9.10;99.90;;;;;;5079186;28;20473;-73
2023/12/16 02:39:53;;;;;;;0.85;0.38;;;9.00;99.90;;;;;;5078994;28;20025;-73
2023/12/16 02:42:18;;;;;;;10.95;2.58;;;8.90;99.90;;;;;;5071190;28;20031;-73
2023/12/16 02:44:44;;;;;;;1.45;0.73;;;9.00;99.90;;;;;;5072903;28;20381;-73
2023/12/16 02:47:10;;;;;;;3.05;1.17;;;9.00;99.90;;;;;;5079206;28;20098;-73
2023/12/16 02:49:36;;;;;;;7.95;1.60;;;9.00;99.90;;;;;;5078871;28;20051;-73
2023/12/16 02:52:02;;;;;;;0.60;0.60;;;8.80;99.90;;;;;;5077475;28;20469;-73
2023/12/16 02:54:28;;;;;;;1.65;0.75;;;8.80;99.90;;;;;;5077707;28;20035;-73
2023/12/16 02:56:54;;;;;;;0.30;0.22;;;8.80;99.90;;;;;;5078865;28;20025;-73
2023/12/16 02:59:19;;;;;;;2.33;1.45;;;8.90;99.90;;;;;;5078905;28;20500;-73
2023/12/16 03:01:46;;;;;;;3.00;0.98;;;8.80;99.90;;;;;;5079019;28;20016;-73
2023/12/16 03:04:12;;;;;;;17.67;2.38;;;8.80;99.90;;;;;;5078870;28;20043;-73
2023/12/16 03:06:45;;;;;;;3.85;0.98;;;8.80;99.90;;;;;;5078469;28;20424;-73
2023/12/16 03:09:10;;;;;;;2.72;1.08;;;8.70;99.90;;;;;;5078933;28;20040;-73
2023/12/16 03:11:37;;;;;;;2.88;2.63;;;8.70;99.90;;;;;;5060609;28;20531;-73
2023/12/16 03:14:03;;;;;;;1.33;1.10;;;8.60;99.90;;;;;;5078655;28;20025;-73
2023/12/16 03:16:30;;;;;;;0.10;0.10;;;8.60;99.90;;;;;;5077236;28;20020;-73
2023/12/16 03:18:55;;;;;;;0.90;0.90;;;8.70;99.90;;;;;;5077482;28;20035;-73
2023/12/16 03:21:21;;;;;;;3.08;1.42;;;8.70;99.90;;;;;;5078241;28;20381;-73
2023/12/16 03:23:50;;;;;;;0.65;0.65;;;8.50;99.90;;;;;;5078565;28;20028;-73
2023/12/16 03:26:16;;;;;;;0.10;0.10;;;8.50;99.90;;;;;;5078078;28;20043;-73
2023/12/16 03:28:42;;;;;;;0.70;0.70;;;8.50;99.90;;;;;;5078614;28;20485;-73
2023/12/16 03:31:09;;;;;;;4.15;1.17;;;8.40;99.90;;;;;;5078521;28;20464;-73
2023/12/16 03:33:35;;;;;;;0.10;0.10;;;8.30;99.90;;;;;;5078502;28;20032;-73
2023/12/16 03:36:00;;;;;;;0.45;0.45;;;8.40;99.90;;;;;;5078145;28;20028;-73
2023/12/16 03:38:26;;;;;;;0.10;0.10;;;8.50;99.90;;;;;;5078412;28;20013;-73
2023/12/16 03:40:52;;;;;;;0.25;0.25;;;8.60;99.90;;;;;;5078523;28;20435;-73
2023/12/16 03:43:18;;;;;;;0.70;0.30;;;8.60;99.90;;;;;;5056825;28;20400;-73
2023/12/16 03:45:44;;;;;;;1.55;1.02;;;8.50;99.90;;;;;;5078519;28;20028;-72
2023/12/16 03:48:10;;;;;;;6.70;1.35;;;8.40;99.90;;;;;;5060806;28;20402;-72
2023/12/16 03:50:36;;;;;;;0.28;0.28;;;8.40;99.90;;;;;;5053670;28;20025;-73
2023/12/16 03:53:02;;;;;;;0.17;0.17;;;8.40;99.90;;;;;;5052985;28;20028;-72
2023/12/16 03:55:28;;;;;;;0.10;0.10;;;8.40;99.90;;;;;;5035164;28;20028;-72
2023/12/16 03:57:53;;;;;;;0.10;0.10;;;8.30;99.90;;;;;;5058259;28;20453;-72
2023/12/16 04:00:19;;;;;;;0.00;0.00;;;8.30;99.90;;;;;;5060027;28;20370;-72
2023/12/16 04:02:45;;;;;;;0.35;0.35;;;8.40;99.90;;;;;;5069965;28;20021;-72
2023/12/16 04:05:11;;;;;;;0.00;0.00;;;8.20;99.90;;;;;;5066101;28;20033;-72
2023/12/16 04:07:37;;;;;;;1.70;0.65;;;8.20;99.90;;;;;;5074621;28;20384;-72
2023/12/16 04:10:03;;;;;;;0.28;0.28;;;8.30;99.90;;;;;;5073737;28;20377;-72
2023/12/16 04:12:29;;;;;;;6.07;1.02;;;8.10;99.90;;;;;;5060642;28;20037;-72
2023/12/16 04:14:55;;;;;;;9.07;3.15;;;8.20;99.90;;;;;;5073721;28;20104;-72
2023/12/16 04:17:21;;;;;;;0.20;0.20;;;8.20;99.90;;;;;;5074627;28;20108;-72
2023/12/16 04:19:51;;;;;;;0.45;0.45;;;8.10;99.90;;;;;;5073131;28;20029;-72
2023/12/16 04:22:17;;;;;;;0.10;0.10;;;8.30;99.90;;;;;;5074788;28;20033;-72
2023/12/16 04:24:43;;;;;;;0.52;0.35;;;8.30;99.90;;;;;;5074537;28;20048;-72
2023/12/16 04:27:09;;;;;;;0.35;0.35;;;8.50;99.90;;;;;;5074446;28;20112;-72
2023/12/16 04:29:35;;;;;;;1.33;0.70;;;8.40;99.90;;;;;;5058991;28;20446;-72
2023/12/16 04:32:01;;;;;;;0.10;0.10;;;8.40;99.90;;;;;;5073169;28;20020;-72
2023/12/16 04:34:26;;;;;;;0.63;0.32;;;8.30;99.90;;;;;;5074075;28;20388;-72
2023/12/16 04:36:53;;;;;;;0.22;0.22;;;8.30;99.90;;;;;;5074259;28;20370;-72
2023/12/16 04:39:19;;;;;;;0.10;0.10;;;8.30;99.90;;;;;;5073256;28;20025;-72
2023/12/16 04:41:45;;;;;;;2.78;1.85;;;8.30;99.90;;;;;;5073984;28;20385;-72
2023/12/16 04:44:10;;;;;;;0.93;0.85;;;8.30;99.90;;;;;;5074160;28;20374;-72
2023/12/16 04:46:36;;;;;;;0.68;0.68;;;8.30;99.90;;;;;;5073656;28;20051;-72
2023/12/16 04:49:02;;;;;;;0.75;0.75;;;8.30;99.90;;;;;;5073977;28;20032;-72
2023/12/16 04:51:28;;;;;;;0.40;0.40;;;8.10;99.90;;;;;;5074175;28;20024;-72
2023/12/16 04:53:56;;;;;;;1.95;1.80;;;8.10;99.90;;;;;;5073574;28;20456;-72
2023/12/16 04:56:22;;;;;;;0.13;0.13;;;7.90;99.90;;;;;;5073852;28;20055;-72
2023/12/16 04:58:48;;;;;;;0.05;0.05;;;8.00;99.90;;;;;;5073436;28;20389;-72
2023/12/16 05:01:14;;;;;;;0.20;0.20;;;7.90;99.90;;;;;;5074024;28;20052;-72
2023/12/16 05:03:41;;;;;;;0.00;0.00;;;8.00;99.90;;;;;;5058938;28;20495;-72
2023/12/16 05:06:07;;;;;;;0.20;0.20;;;7.90;99.90;;;;;;5072729;28;20028;-72
2023/12/16 05:08:33;;;;;;;2.75;2.55;;;7.80;99.90;;;;;;5073646;28;20044;-73
2023/12/16 05:10:59;;;;;;;0.08;0.08;;;7.90;99.90;;;;;;5076952;28;20020;-73
2023/12/16 05:13:25;;;;;;;1.67;0.55;;;8.10;99.90;;;;;;5073638;28;20386;-73
2023/12/16 05:15:53;;;;;;;0.80;0.75;;;8.20;99.90;;;;;;5071963;28;20433;-73
2023/12/16 05:18:19;;;;;;;0.22;0.22;;;7.90;99.90;;;;;;5073521;28;20028;-73
2023/12/16 05:20:46;;;;;;;0.10;0.10;;;7.80;99.90;;;;;;5072234;28;20457;-73
2023/12/16 05:23:14;;;;;;;0.00;0.00;;;7.70;99.90;;;;;;5072154;28;20112;-73
2023/12/16 05:25:40;;;;;;;0.73;0.73;;;7.90;99.90;;;;;;5072444;28;20036;-73
2023/12/16 05:28:05;;;;;;;0.20;0.20;;;7.80;99.90;;;;;;5073316;28;20091;-73
2023/12/16 05:30:31;;;;;;;0.10;0.10;;;7.60;99.90;;;;;;5071899;28;20052;-73
2023/12/16 05:32:57;;;;;;;0.10;0.10;;;7.70;99.90;;;;;;5073257;28;20124;-73
2023/12/16 05:35:23;;;;;;;0.10;0.10;;;7.70;99.90;;;;;;5073372;28;20539;-73
2023/12/16 05:37:49;;;;;;;0.20;0.20;;;7.70;99.90;;;;;;5073052;28;20046;-73
2023/12/16 05:40:15;;;;;;;0.10;0.10;;;7.90;99.90;;;;;;5072203;28;20389;-73
2023/12/16 05:42:41;;;;;;;1.35;0.47;;;7.70;99.90;;;;;;5070294;28;20060;-73
2023/12/16 05:45:07;;;;;;;0.10;0.10;;;7.70;99.90;;;;;;5057887;28;20062;-73
2023/12/16 05:47:33;;;;;;;0.40;0.40;;;7.70;99.90;;;;;;5071894;28;20055;-73
2023/12/16 05:49:59;;;;;;;1.85;1.00;;;7.80;99.90;;;;;;5072837;28;20025;-73
2023/12/16 05:52:25;;;;;;;0.38;0.38;;;7.80;99.90;;;;;;5071823;28;20040;-72
2023/12/16 05:54:51;;;;;;;0.88;0.45;;;7.70;99.90;;;;;;5071466;28;20050;-73
2023/12/16 05:57:17;;;;;;;5.47;1.50;;;7.40;99.90;;;;;;5073113;28;20036;-73
2023/12/16 05:59:43;;;;;;;0.55;0.22;;;7.50;99.90;;;;;;5071250;28;20029;-72
2023/12/16 06:02:09;;;;;;;0.32;0.25;;;7.40;99.90;;;;;;5070469;28;20026;-72
2023/12/16 06:04:35;;;;;;;1.35;1.20;;;7.30;99.90;;;;;;5060571;28;20039;-72
2023/12/16 06:07:01;;;;;;;0.35;0.35;;;7.30;99.90;;;;;;5070710;28;20207;-73
2023/12/16 06:09:27;;;;;;;3.40;0.63;;;7.40;99.90;;;;;;5070524;28;20119;-72
2023/12/16 06:11:55;;;;;;;1.63;1.50;;;7.40;99.90;;;;;;5072820;28;20021;-72
2023/12/16 06:14:21;;;;;;;2.83;1.08;;;7.50;99.90;;;;;;5072092;28;20465;-72
2023/12/16 06:16:47;;;;;;;0.00;0.00;;;7.50;99.90;;;;;;5071596;28;20441;-72
2023/12/16 06:19:12;;;;;;;0.63;0.55;;;7.50;99.90;;;;;;5072487;28;20025;-72
2023/12/16 06:21:38;;;;;;;1.95;1.08;;;7.60;99.90;;;;;;5071496;28;20028;-72
2023/12/16 06:24:05;;;;;;;0.52;0.47;;;7.70;99.90;;;;;;5072418;28;20027;-72
2023/12/16 06:26:32;;;;;;;2.85;2.50;;;7.60;99.90;;;;;;5072579;28;20511;-72
2023/12/16 06:28:58;;;;;;;3.80;0.98;;;7.50;99.90;;;;;;5071121;28;20123;-72
2023/12/16 06:31:24;;;;;;;0.08;0.08;;;7.50;99.90;;;;;;5072733;28;20066;-72
2023/12/16 06:33:50;;;;;;;4.53;1.70;;;7.60;99.90;;;;;;5072351;28;20025;-73
2023/12/16 06:36:17;;;;;;;4.25;0.90;;;7.50;99.90;;;;;;5071310;28;20102;-73
2023/12/16 06:38:43;;;;;;;1.73;0.98;;;7.40;99.90;;;;;;5072486;28;20436;-72
2023/12/16 06:41:09;;;;;;;4.65;1.80;;;7.50;99.90;;;;;;5072307;28;20052;-73
2023/12/16 06:43:35;;;;;;;2.67;1.58;;;7.70;99.90;;;;;;5072042;28;20101;-72
2023/12/16 06:46:01;;;;;;;0.15;0.15;;;7.60;99.90;;;;;;5072286;28;20134;-73
2023/12/16 06:48:27;;;;;;;0.15;0.15;;;7.80;99.90;;;;;;5072183;28;20067;-72
2023/12/16 06:50:57;;;;;;;1.13;1.05;;;7.60;99.90;;;;;;5068095;28;20021;-73
2023/12/16 06:53:26;;;;;;;3.38;0.68;;;7.50;99.90;;;;;;5064368;28;20029;-72
2023/12/16 06:55:53;;;;;;;1.42;1.33;;;7.40;99.90;;;;;;5072096;28;20161;-73
2023/12/16 06:58:25;;;;;;;3.80;1.13;;;7.50;99.90;;;;;;5072082;28;20036;-72
2023/12/16 07:00:51;;;;;;;4.70;3.00;;;7.50;99.90;;;;;;5060761;28;20509;-73
2023/12/16 07:03:17;;;;;;;0.10;0.10;;;7.60;99.90;;;;;;5061329;28;20036;-73
2023/12/16 07:05:43;;;;;;;0.65;0.35;;;7.50;99.90;;;;;;5066128;28;20074;-72
2023/12/16 07:08:09;;;;;;;0.17;0.17;;;7.50;99.90;;;;;;5061885;28;20183;-72
2023/12/16 07:10:34;;;;;;;0.13;0.13;;;7.60;99.90;;;;;;5067984;28;20055;-73
2023/12/16 07:13:00;;;;;;;0.20;0.20;;;7.60;99.90;;;;;;5054656;28;20029;-72
2023/12/16 07:15:26;;;;;;;0.73;0.40;;;7.50;99.90;;;;;;5042974;28;20025;-72
2023/12/16 07:17:53;;;;;;;2.80;2.55;;;7.60;99.90;;;;;;5056025;28;20043;-72
2023/12/16 07:20:18;;;;;;;0.00;0.00;;;7.60;99.90;;;;;;5055634;28;20028;-72
2023/12/16 07:22:45;;;;;;;0.10;0.10;;;7.60;99.90;;;;;;5060704;28;20531;-72
2023/12/16 07:25:11;;;;;;;0.00;0.00;;;7.70;99.90;;;;;;5063141;28;20052;-72
2023/12/16 07:27:36;;;;;;;0.10;0.10;;;7.80;99.90;;;;;;5063380;28;20397;-72
2023/12/16 07:30:03;;;;;;;3.05;0.98;;;7.70;99.90;;;;;;5058100;28;20021;-72
2023/12/16 07:32:28;;;;;;;0.20;0.20;;;7.90;99.90;;;;;;5056796;28;20537;-72
2023/12/16 07:34:54;;;;;;;0.50;0.50;;;8.10;99.90;;;;;;5060385;28;20103;-72
2023/12/16 07:37:20;;;;;;;0.95;0.95;;;8.20;99.90;;;;;;5065854;28;20037;-72
2023/12/16 07:39:46;;;;;;;0.90;0.35;;;8.30;99.90;;;;;;5064691;28;20075;-72
2023/12/16 07:42:13;;;;;;;2.35;0.75;;;8.40;99.90;;;;;;5066201;28;20028;-71
2023/12/16 07:44:39;;;;;;;1.75;0.85;;;8.40;99.90;;;;;;5066059;28;20025;-73
2023/12/16 07:47:05;;;;;;;1.90;1.75;;;8.30;99.90;;;;;;5071170;28;20028;-72
2023/12/16 07:49:30;;;;;;;3.60;0.90;;;8.10;99.90;;;;;;5072177;28;20465;-71
2023/12/16 07:51:57;;;;;;;0.10;0.10;;;8.20;99.90;;;;;;5071797;28;20029;-71
2023/12/16 07:54:24;;;;;;;0.45;0.45;;;8.30;99.90;;;;;;5043408;28;20485;-72
2023/12/16 07:56:50;;;;;;;0.25;0.10;;;8.50;99.90;;;;;;5054441;28;20036;-72
2023/12/16 07:59:16;;;;;;;1.00;0.82;;;8.40;99.90;;;;;;5059150;28;20107;-72
2023/12/16 08:01:42;;;;;;;1.90;0.35;;;8.70;99.90;;;;;;5067929;28;20516;-71
2023/12/16 08:04:08;;;;;;;0.10;0.10;;;8.70;99.90;;;;;;5069750;28;20055;-72
2023/12/16 08:06:34;;;;;;;6.60;1.58;;;8.50;99.90;;;;;;5070810;28;20040;-72
2023/12/16 08:09:00;;;;;;;1.88;1.02;;;8.70;99.90;;;;;;5070146;28;20025;-72
2023/12/16 08:11:25;;;;;;;2.30;0.47;;;8.70;99.90;;;;;;5064875;28;20028;-72
2023/12/16 08:13:51;;;;;;;1.45;0.45;;;8.60;99.90;;;;;;5061676;28;20040;-72
2023/12/16 08:16:17;;;;;;;4.13;1.65;;;8.60;99.90;;;;;;5064023;28;20040;-72
2023/12/16 08:18:43;;;;;;;0.03;0.03;;;8.60;99.90;;;;;;5061791;28;20086;-72
2023/12/16 08:21:08;;;;;;;0.10;0.10;;;8.80;99.90;;;;;;5062783;28;20032;-72
2023/12/16 08:23:34;;;;;;;0.30;0.30;;;9.00;99.90;;;;;;5065852;28;20032;-72
2023/12/16 08:26:00;;;;;;;2.33;0.82;;;8.90;99.90;;;;;;5059887;28;20036;-72
2023/12/16 08:28:26;;;;;;;0.28;0.28;;;8.80;99.90;;;;;;5059025;28;20033;-72
2023/12/16 08:30:53;;;;;;;0.10;0.10;;;8.80;99.90;;;;;;5058699;28;20039;-72
2023/12/16 08:33:19;;;;;;;1.17;0.95;;;8.90;99.90;;;;;;5043254;28;20020;-72
2023/12/16 08:35:46;;;;;;;0.08;0.08;;;9.00;99.90;;;;;;5066476;28;20048;-72
2023/12/16 08:38:12;;;;;;;0.08;0.08;;;9.10;99.90;;;;;;5065742;28;20090;-72
2023/12/16 08:40:38;;;;;;;0.43;0.43;;;9.00;99.90;;;;;;5066240;28;20013;-72
2023/12/16 08:43:04;;;;;;;1.52;1.40;;;9.00;99.90;;;;;;5057717;28;20029;-72
2023/12/16 08:45:30;;;;;;;1.27;0.40;;;9.10;99.90;;;;;;5070143;28;20047;-72
2023/12/16 08:47:56;;;;;;;8.40;4.57;;;9.20;99.90;;;;;;5070169;28;20072;-72
2023/12/16 08:50:23;;;;;;;0.00;0.00;;;9.40;99.90;;;;;;5058462;28;20024;-72
2023/12/16 08:52:49;;;;;;;3.42;2.38;;;9.50;99.90;;;;;;5067666;28;20028;-72
2023/12/16 08:55:15;;;;;;;2.60;1.30;;;9.40;99.90;;;;;;5056885;28;20864;-72
2023/12/16 08:57:41;;;;;;;0.57;0.57;;;9.50;99.90;;;;;;5068584;28;20032;-72
2023/12/16 09:00:08;;;;;;;11.07;0.35;;;9.40;99.90;;;;;;5066480;28;20036;-72
2023/12/16 09:02:34;;;;;;;0.00;0.00;;;9.70;99.90;;;;;;5057679;28;20021;-72
2023/12/16 09:05:00;;;;;;;0.08;0.08;;;9.70;99.90;;;;;;5059538;28;20401;-72
2023/12/16 09:07:26;;;;;;;3.00;1.85;;;9.80;99.90;;;;;;5067987;28;20032;-72
2023/12/16 09:09:52;;;;;;;0.20;0.20;;;9.70;99.90;;;;;;5063013;28;20025;-72
2023/12/16 09:12:18;;;;;;;1.67;1.58;;;9.80;99.90;;;;;;5061910;28;20037;-72
2023/12/16 09:14:44;;;;;;;1.25;0.70;;;9.80;99.90;;;;;;5064092;28;20028;-72
2023/12/16 09:17:10;;;;;;;0.10;0.10;;;9.90;99.90;;;;;;5070591;28;20031;-72
2023/12/16 09:19:35;;;;;;;22.90;1.60;;;10.20;99.90;;;;;;5058796;28;20027;-72
2023/12/16 09:22:01;;;;;;;5.13;1.33;;;10.00;99.90;;;;;;5070648;28;20028;-72
2023/12/16 09:24:27;;;;;;;8.05;1.77;;;10.00;99.90;;;;;;5068457;28;20024;-72
2023/12/16 09:26:53;;;;;;;0.65;0.65;;;10.00;99.90;;;;;;5053843;28;20040;-72
2023/12/16 09:29:19;;;;;;;0.10;0.10;;;10.10;99.90;;;;;;5070727;28;20032;-72
2023/12/16 09:31:45;;;;;;;0.10;0.10;;;10.20;99.90;;;;;;5059829;28;20028;-72
2023/12/16 09:34:10;;;;;;;9.85;0.85;;;10.10;99.90;;;;;;5059179;28;20029;-72
2023/12/16 09:36:36;;;;;;;1.85;0.80;;;10.20;99.90;;;;;;5059113;28;20021;-72
2023/12/16 09:39:02;;;;;;;6.55;2.13;;;10.30;99.90;;;;;;5058970;28;20025;-72
2023/12/16 09:41:31;;;;;;;0.00;0.00;;;10.40;99.90;;;;;;5054378;28;20024;-72
2023/12/16 09:43:59;;;;;;;7.03;1.63;;;10.30;99.90;;;;;;5059989;28;20070;-72
2023/12/16 09:46:31;;;;;;;0.40;0.40;;;10.40;99.90;;;;;;5062083;28;20721;-72
2023/12/16 09:48:58;;;;;;;1.25;0.98;;;10.50;99.90;;;;;;5059072;28;20061;-73
2023/12/16 09:51:24;;;;;;;13.57;1.70;;;10.60;99.90;;;;;;5057461;28;20504;-72
2023/12/16 09:53:51;;;;;;;1.08;0.80;;;10.50;99.90;;;;;;5052251;28;20108;-72
2023/12/16 09:56:19;;;;;;;9.90;2.22;;;10.40;99.90;;;;;;5063348;28;20025;-72
2023/12/16 09:58:46;;;;;;;3.55;1.17;;;10.40;99.90;;;;;;5054963;28;20024;-72
2023/12/16 10:01:13;;;;;;;1.00;0.95;;;10.50;99.90;;;;;;5061415;28;20533;-72
2023/12/16 10:03:41;;;;;;;0.65;0.65;;;10.60;99.90;;;;;;5062934;28;20059;-72
2023/12/16 10:06:08;;;;;;;0.10;0.10;;;10.70;99.90;;;;;;5061971;28;20517;-72
2023/12/16 10:08:35;;;;;;;9.02;0.73;;;10.80;99.90;;;;;;5058906;28;20431;-72
2023/12/16 10:11:03;;;;;;;1.70;1.00;;;10.70;99.90;;;;;;5069877;28;20587;-72
2023/12/16 10:13:30;;;;;;;1.02;0.65;;;10.60;99.90;;;;;;5065284;28;20423;-72
2023/12/16 10:15:57;;;;;;;4.57;1.98;;;10.70;99.90;;;;;;5068119;28;20058;-72
2023/12/16 10:18:23;;;;;;;5.05;1.23;;;10.70;99.90;;;;;;5054191;28;20534;-72
2023/12/16 10:20:49;;;;;;;6.32;1.33;;;10.70;99.90;;;;;;5065736;28;20021;-72
2023/12/16 10:23:15;;;;;;;3.97;1.92;;;10.90;99.90;;;;;;5071297;28;20085;-72
2023/12/16 10:25:42;;;;;;;1.50;1.17;;;10.80;99.90;;;;;;5064758;28;20102;-71
2023/12/16 10:28:10;;;;;;;0.10;0.10;;;10.70;99.90;;;;;;5046257;28;20449;-72
2023/12/16 10:30:36;;;;;;;3.95;0.95;;;10.80;99.90;;;;;;5066100;28;20017;-72
2023/12/16 10:33:06;;;;;;;6.97;1.80;;;10.80;99.90;;;;;;5066839;28;20033;-72
2023/12/16 10:35:33;;;;;;;14.23;2.03;;;10.80;99.90;;;;;;5046600;28;20107;-71
2023/12/16 10:37:59;;;;;;;3.67;1.27;;;10.70;99.90;;;;;;5046617;28;20021;-71
2023/12/16 10:40:26;;;;;;;7.57;2.17;;;10.70;99.90;;;;;;5048182;28;20113;-72
2023/12/16 10:42:53;;;;;;;4.68;1.80;;;10.90;99.90;;;;;;5049194;28;20025;-72
2023/12/16 10:45:19;;;;;;;10.98;1.40;;;10.80;99.90;;;;;;5063842;28;20039;-72
2023/12/16 10:47:49;;;;;;;4.80;0.82;;;10.80;99.90;;;;;;5062839;28;20115;-72
2023/12/16 10:50:15;;;;;;;18.73;2.15;;;10.90;99.90;;;;;;5066138;28;20020;-72
2023/12/16 10:52:56;;;;;;;4.43;1.92;;;10.90;99.90;;;;;;5069821;28;20111;-71
2023/12/16 10:55:42;;;;;;;12.75;2.22;;;10.80;99.90;;;;;;5055191;28;20020;-72
2023/12/16 10:58:11;;;;;;;7.43;1.45;;;10.90;99.90;;;;;;5071025;28;20025;-72
2023/12/16 11:00:38;;;;;;;0.60;0.60;;;11.00;99.90;;;;;;5063710;28;20020;-71
2023/12/16 11:03:47;;;;;;;19.73;4.03;;;10.90;99.90;;;;;;5070880;28;20020;-72
2023/12/16 11:06:19;;;;;;;0.82;0.82;;;10.90;99.90;;;;;;5055718;28;20039;-72
2023/12/16 11:08:46;;;;;;;4.93;1.98;;;10.90;99.90;;;;;;5052703;28;20057;-71
2023/12/16 11:11:12;;;;;;;6.43;0.85;;;11.00;99.90;;;;;;5073793;28;20376;-71
2023/12/16 11:13:38;;;;;;;15.10;2.83;;;11.00;99.90;;;;;;5063252;28;20017;-71
2023/12/16 11:16:16;;;;;;;0.25;0.20;;;11.10;99.90;;;;;;5057571;28;20040;-71
2023/12/16 11:18:47;;;;;;;24.42;1.20;;;11.10;99.90;;;;;;5055214;28;20029;-71
2023/12/16 11:21:19;;;;;;;0.20;0.20;;;11.10;99.90;;;;;;5071078;28;20047;-72
2023/12/16 11:23:48;;;;;;;0.10;0.10;;;11.00;99.90;;;;;;5067719;28;20029;-71
2023/12/16 11:26:16;;;;;;;2.75;1.05;;;11.20;99.90;;;;;;5058210;28;20039;-72
2023/12/16 11:28:42;;;;;;;14.02;2.50;;;11.20;99.90;;;;;;5054570;28;20037;-72
2023/12/16 11:31:10;;;;;;;2.65;1.35;;;11.20;99.90;;;;;;5056437;28;20029;-71
2023/12/16 11:33:43;;;;;;;11.85;2.72;;;11.20;99.90;;;;;;5059703;28;20456;-72
2023/12/16 11:36:09;;;;;;;11.00;3.25;;;11.10;99.90;;;;;;5060279;28;20028;-71
2023/12/16 11:38:37;;;;;;;3.95;3.00;;;11.00;99.90;;;;;;5060506;28;20025;-71
2023/12/16 11:41:03;;;;;;;5.35;1.73;;;11.10;99.90;;;;;;5055566;28;20028;-71
2023/12/16 11:43:46;;;;;;;0.85;0.65;;;11.00;99.90;;;;;;5054939;28;20036;-72
2023/12/16 11:46:37;;;;;;;2.83;1.45;;;11.10;99.90;;;;;;5053816;28;20078;-72
2023/12/16 11:49:07;;;;;;;6.95;1.00;;;11.20;99.90;;;;;;5054478;28;20040;-71
2023/12/16 11:51:34;;;;;;;11.20;1.48;;;11.20;99.90;;;;;;5054877;28;20024;-72
2023/12/16 11:54:03;;;;;;;3.60;2.33;;;11.20;99.90;;;;;;5053762;28;20387;-72
2023/12/16 11:56:29;;;;;;;0.68;0.65;;;11.20;99.90;;;;;;5054687;28;20489;-72
2023/12/16 11:58:57;;;;;;;10.75;0.90;;;11.20;99.90;;;;;;5053256;28;20059;-72
2023/12/16 12:01:31;;;;;;;0.77;0.75;;;11.10;99.90;;;;;;5054875;28;20025;-71
2023/12/16 12:03:58;;;;;;;6.90;1.40;;;11.00;99.90;;;;;;5054711;28;20024;-72
2023/12/16 12:06:25;;;;;;;0.52;0.32;;;11.10;99.90;;;;;;5057091;28;20440;-72
2023/12/16 12:08:51;;;;;;;30.13;3.13;;;11.10;99.90;;;;;;5074084;28;20370;-72
2023/12/16 12:11:18;;;;;;;9.43;1.85;;;11.10;99.90;;;;;;5073971;28;20024;-72
2023/12/16 12:13:44;;;;;;;16.17;1.90;;;11.30;99.90;;;;;;5074901;28;20058;-72
2023/12/16 12:16:14;;;;;;;2.15;1.75;;;11.40;99.90;;;;;;5074799;28;20147;-72
2023/12/16 12:18:41;;;;;;;28.85;2.45;;;11.20;99.90;;;;;;5074692;28;20082;-71
2023/12/16 12:21:08;;;;;;;2.60;0.75;;;11.10;99.90;;;;;;5074868;28;20089;-72
2023/12/16 12:23:36;;;;;;;0.73;0.73;;;11.10;99.90;;;;;;5075017;28;20380;-71
2023/12/16 12:26:03;;;;;;;17.42;3.20;;;11.00;99.90;;;;;;5074497;28;20048;-71
2023/12/16 12:28:29;;;;;;;7.38;2.50;;;11.00;99.90;;;;;;5074584;28;20087;-71
2023/12/16 12:31:03;;;;;;;2.00;1.13;;;10.90;99.90;;;;;;5054516;28;20047;-71
2023/12/16 12:33:31;;;;;;;14.95;2.55;;;10.90;99.90;;;;;;5042988;28;20080;-72
2023/12/16 12:35:57;;;;;;;3.10;1.88;;;11.10;99.90;;;;;;5054201;28;20067;-72
2023/12/16 12:38:23;;;;;;;0.57;0.57;;;11.10;99.90;;;;;;5054261;28;20025;-72
2023/12/16 12:41:00;;;;;;;4.97;1.67;;;11.10;99.90;;;;;;5054826;28;20495;-72
2023/12/16 12:43:28;;;;;;;11.50;1.25;;;11.10;99.90;;;;;;5054087;28;20025;-73
2023/12/16 12:46:06;;;;;;;0.75;0.52;;;11.10;99.90;;;;;;5054083;28;20035;-73
2023/12/16 12:48:32;;;;;;;10.73;3.58;;;11.20;99.90;;;;;;5054042;28;20055;-73
2023/12/16 12:51:06;;;;;;;1.17;1.00;;;11.10;99.90;;;;;;5054187;28;20047;-73